Benjamin, Texas
Current Conditions -  °F | °C
As of 2:36 AM on Saturday 29 Nov 2014 (Local Time) from KF05 Reporting Station
Clear Clear  
Wind Chill: 50°   Ceiling: Unl
Heat Index: 50°   Visibility: 10mi
Dew Point: 37°   Wind: 10mph
Humidity: 62%   Direction: 220°SW
Pressure: 29.84"   Gusts: NA
Location:  33.58°N, 99.79°W
Report Text: KF05 290836Z AUTO 22009KT 10SM CLR 10/03 A2984 RMK AO2
Loading
Personal Weather Stations






























Interactive Weather Map New forecast layout! Learn more

10-Day Weather Forecast

Advertisements
Track Severe Weather on mobile